createdAt,value
2022-10-06T00:01:12.672Z,100.00
2022-10-06T00:03:40.836Z,100.00
2022-10-06T00:06:11.015Z,100.00
2022-10-06T00:08:40.850Z,100.00
2022-10-06T00:11:12.756Z,100.00
2022-10-06T00:13:40.908Z,100.00
2022-10-06T00:16:22.430Z,100.00
2022-10-06T00:18:49.825Z,100.00
2022-10-06T00:21:17.209Z,100.00
2022-10-06T00:23:45.019Z,100.00
2022-10-06T00:26:17.575Z,100.00
2022-10-06T00:28:47.820Z,100.00
2022-10-06T00:31:16.277Z,100.00
2022-10-06T00:33:43.383Z,100.00
2022-10-06T00:36:10.870Z,100.00
2022-10-06T00:38:38.509Z,100.00
2022-10-06T00:41:16.635Z,100.00
2022-10-06T00:43:50.874Z,100.00
2022-10-06T00:46:30.166Z,100.00
2022-10-06T00:49:37.017Z,100.00
2022-10-06T00:52:09.109Z,100.00
2022-10-06T00:54:36.713Z,100.00
2022-10-06T00:57:05.995Z,100.00
2022-10-06T00:59:33.426Z,100.00
2022-10-06T01:02:07.269Z,100.00
2022-10-06T01:04:37.940Z,100.00
2022-10-06T01:07:05.102Z,100.00
2022-10-06T01:09:32.828Z,100.00
2022-10-06T01:12:04.110Z,100.00
2022-10-06T01:14:31.830Z,100.00
2022-10-06T01:17:08.730Z,100.00
2022-10-06T01:19:55.145Z,100.00
2022-10-06T01:22:58.066Z,100.00
2022-10-06T01:25:27.008Z,100.00
2022-10-06T01:27:55.959Z,100.00
2022-10-06T01:30:33.158Z,100.00
2022-10-06T01:33:00.658Z,100.00
2022-10-06T01:35:28.121Z,100.00
2022-10-06T01:37:58.664Z,100.00
2022-10-06T01:40:29.002Z,100.00
2022-10-06T01:42:58.309Z,100.00
2022-10-06T01:45:27.145Z,100.00
2022-10-06T01:47:54.212Z,100.00
2022-10-06T01:50:22.098Z,100.00
2022-10-06T01:52:49.172Z,100.00
2022-10-06T01:55:17.266Z,100.00
2022-10-06T01:57:44.391Z,100.00
2022-10-06T02:00:13.328Z,100.00
2022-10-06T02:02:42.537Z,100.00
2022-10-06T02:05:09.881Z,100.00
2022-10-06T02:07:40.279Z,100.00
2022-10-06T02:10:08.567Z,100.00
2022-10-06T02:12:36.237Z,100.00
2022-10-06T02:15:04.286Z,100.00
2022-10-06T02:17:31.605Z,100.00
2022-10-06T02:19:58.763Z,100.00
2022-10-06T02:22:27.580Z,100.00
2022-10-06T02:24:54.843Z,100.00
2022-10-06T02:27:22.133Z,100.00
2022-10-06T02:29:50.252Z,100.00
2022-10-06T02:32:17.518Z,100.00
2022-10-06T02:34:45.438Z,100.00
2022-10-06T02:37:13.424Z,100.00
2022-10-06T02:39:40.466Z,100.00
2022-10-06T02:42:08.952Z,100.00
2022-10-06T02:44:38.544Z,100.00
2022-10-06T02:47:05.680Z,100.00
2022-10-06T02:49:32.667Z,100.00
2022-10-06T02:51:59.761Z,100.00
2022-10-06T02:54:26.906Z,100.00
2022-10-06T02:56:53.926Z,100.00
2022-10-06T02:59:21.107Z,100.00
2022-10-06T03:01:48.478Z,100.00
2022-10-06T03:04:19.036Z,100.00
2022-10-06T03:06:46.134Z,100.00
2022-10-06T03:09:18.863Z,100.00
2022-10-06T03:11:46.133Z,100.00
2022-10-06T03:14:22.645Z,100.00
2022-10-06T03:16:51.868Z,100.00
2022-10-06T03:19:23.928Z,100.00
2022-10-06T03:21:51.478Z,100.00
2022-10-06T03:24:18.719Z,100.00
2022-10-06T03:26:51.401Z,100.00
2022-10-06T03:29:20.553Z,100.00
2022-10-06T03:31:52.641Z,100.00
2022-10-06T03:34:19.687Z,100.00
2022-10-06T03:36:46.761Z,100.00
2022-10-06T03:39:16.691Z,100.00
2022-10-06T03:41:43.760Z,100.00
2022-10-06T03:44:10.810Z,100.00
2022-10-06T03:46:40.944Z,100.00
2022-10-06T03:49:08.392Z,100.00
2022-10-06T03:51:41.602Z,100.00
2022-10-06T03:54:13.391Z,100.00
2022-10-06T03:56:43.382Z,100.00
2022-10-06T03:59:16.385Z,100.00
2022-10-06T04:01:48.201Z,100.00
2022-10-06T04:04:23.701Z,100.00
2022-10-06T04:06:55.291Z,100.00
2022-10-06T04:09:22.919Z,100.00
2022-10-06T04:11:51.753Z,100.00
2022-10-06T04:14:19.678Z,100.00
2022-10-06T04:16:49.740Z,100.00
2022-10-06T04:19:22.322Z,100.00
2022-10-06T04:21:53.290Z,100.00
2022-10-06T04:24:28.257Z,100.00
2022-10-06T04:27:16.851Z,100.00
2022-10-06T04:29:48.927Z,100.00
2022-10-06T04:32:16.509Z,100.00
2022-10-06T04:34:43.782Z,100.00
2022-10-06T04:37:11.543Z,100.00
2022-10-06T04:39:39.943Z,100.00
2022-10-06T04:42:07.841Z,100.00
2022-10-06T04:44:35.008Z,100.00
2022-10-06T04:47:04.190Z,100.00
2022-10-06T04:49:31.735Z,100.00
2022-10-06T04:51:59.571Z,100.00
2022-10-06T04:54:33.566Z,100.00
2022-10-06T04:57:02.021Z,100.00
2022-10-06T04:59:49.478Z,100.00
2022-10-06T05:02:19.081Z,100.00
2022-10-06T05:04:46.756Z,100.00
2022-10-06T05:07:15.556Z,100.00
2022-10-06T05:09:43.281Z,100.00
2022-10-06T05:12:11.465Z,100.00
2022-10-06T05:14:39.239Z,100.00
2022-10-06T05:17:06.376Z,100.00
2022-10-06T05:20:00.039Z,100.00
2022-10-06T05:22:27.158Z,100.00
2022-10-06T05:24:54.228Z,100.00
2022-10-06T05:27:21.600Z,100.00
2022-10-06T05:29:48.875Z,100.00
2022-10-06T05:32:16.005Z,100.00
2022-10-06T05:34:43.102Z,100.00
2022-10-06T05:37:10.939Z,100.00
2022-10-06T05:39:39.266Z,100.00
2022-10-06T05:42:06.374Z,100.00
2022-10-06T05:44:33.615Z,100.00
2022-10-06T05:47:06.326Z,100.00
2022-10-06T05:49:33.466Z,100.00
2022-10-06T05:52:03.392Z,100.00
2022-10-06T05:54:33.216Z,100.00
2022-10-06T05:57:00.723Z,100.00
2022-10-06T05:59:29.665Z,100.00
2022-10-06T06:01:59.406Z,100.00
2022-10-06T06:04:33.528Z,100.00
2022-10-06T06:07:01.299Z,100.00
2022-10-06T06:09:28.933Z,100.00
2022-10-06T06:12:08.946Z,100.00
2022-10-06T06:15:09.818Z,100.00
2022-10-06T06:17:46.998Z,100.00
2022-10-06T06:20:39.311Z,100.00
2022-10-06T06:23:06.551Z,100.00
2022-10-06T06:25:33.599Z,100.00
2022-10-06T06:28:00.795Z,100.00
2022-10-06T06:30:27.824Z,100.00
2022-10-06T06:33:00.053Z,100.00
2022-10-06T06:35:27.339Z,100.00
2022-10-06T06:37:54.410Z,100.00
2022-10-06T06:40:21.949Z,100.00
2022-10-06T06:42:53.671Z,100.00
2022-10-06T06:45:53.413Z,100.00
2022-10-06T06:48:25.761Z,100.00
2022-10-06T06:50:58.363Z,100.00
2022-10-06T06:53:26.299Z,100.00
2022-10-06T06:55:57.970Z,100.00
2022-10-06T06:58:25.271Z,100.00
2022-10-06T07:00:52.915Z,100.00
2022-10-06T07:03:52.204Z,100.00
2022-10-06T07:06:13.947Z,100.00
2022-10-06T07:08:45.693Z,100.00
2022-10-06T07:11:17.256Z,100.00
2022-10-06T07:13:47.273Z,100.00
2022-10-06T07:16:36.326Z,100.00
2022-10-06T07:19:24.944Z,100.00
2022-10-06T07:22:21.041Z,100.00
2022-10-06T07:25:07.467Z,100.00
2022-10-06T07:27:51.037Z,100.00
2022-10-06T07:30:26.646Z,100.00
2022-10-06T07:33:22.836Z,100.00
2022-10-06T07:35:51.912Z,100.00
2022-10-06T07:38:25.724Z,100.00
2022-10-06T07:43:46.810Z,100.00
2022-10-06T07:46:15.326Z,100.00
2022-10-06T07:48:49.060Z,100.00
2022-10-06T07:51:19.291Z,100.00
2022-10-06T07:53:50.127Z,100.00
2022-10-06T07:56:28.268Z,100.00
2022-10-06T07:58:58.584Z,100.00
2022-10-06T08:01:30.692Z,100.00
2022-10-06T08:03:57.985Z,100.00
2022-10-06T08:06:25.012Z,100.00
2022-10-06T08:08:56.430Z,100.00
2022-10-06T08:11:23.601Z,100.00
2022-10-06T08:13:52.013Z,100.00
2022-10-06T08:16:23.579Z,100.00
2022-10-06T08:18:53.392Z,100.00
2022-10-06T08:21:31.936Z,100.00
2022-10-06T08:24:00.862Z,100.00
2022-10-06T08:26:31.018Z,100.00
2022-10-06T08:29:02.126Z,100.00
2022-10-06T08:31:31.289Z,100.00
2022-10-06T08:33:58.561Z,100.00
2022-10-06T08:36:31.308Z,100.00
2022-10-06T08:39:00.739Z,100.00
2022-10-06T08:41:48.471Z,100.00
2022-10-06T08:44:19.423Z,100.00
2022-10-06T08:47:04.089Z,99.45
2022-10-06T08:49:41.093Z,97.37
2022-10-06T08:52:28.572Z,95.04
2022-10-06T08:55:43.505Z,95.44
2022-10-06T08:58:33.387Z,94.69
2022-10-06T09:01:10.112Z,94.57
2022-10-06T09:03:37.836Z,95.62
2022-10-06T09:07:09.224Z,100.00
2022-10-06T09:10:06.876Z,100.00
2022-10-06T09:12:53.737Z,97.21
2022-10-06T09:15:37.986Z,93.96
2022-10-06T09:18:22.206Z,89.11
2022-10-06T09:20:59.009Z,88.23
2022-10-06T09:23:50.168Z,86.97
2022-10-06T09:26:32.944Z,90.88
2022-10-06T09:29:00.185Z,85.42
2022-10-06T09:31:34.504Z,83.56
2022-10-06T09:34:21.434Z,80.27
2022-10-06T09:37:09.245Z,78.31
2022-10-06T09:39:48.124Z,74.70
2022-10-06T09:42:35.506Z,71.48
2022-10-06T09:45:05.849Z,70.48
2022-10-06T09:48:29.589Z,68.77
2022-10-06T09:51:13.510Z,69.55
2022-10-06T09:54:38.700Z,72.22
2022-10-06T09:58:02.628Z,69.83
2022-10-06T10:01:26.546Z,68.29
2022-10-06T10:04:20.968Z,68.54
2022-10-06T10:06:49.568Z,64.61
2022-10-06T10:09:27.042Z,62.87
2022-10-06T10:12:33.273Z,60.89
2022-10-06T10:15:25.594Z,59.91
2022-10-06T10:18:50.900Z,59.57
2022-10-06T10:21:31.821Z,59.62
2022-10-06T10:24:02.660Z,55.96
2022-10-06T10:26:39.308Z,55.49
2022-10-06T10:29:43.454Z,56.22
2022-10-06T10:33:07.020Z,55.24
2022-10-06T10:36:30.999Z,54.05
2022-10-06T10:38:59.935Z,53.09
2022-10-06T10:41:37.903Z,52.55
2022-10-06T10:45:01.368Z,52.34
2022-10-06T10:48:24.917Z,54.71
2022-10-06T10:51:05.836Z,56.86
2022-10-06T10:53:43.922Z,56.61
2022-10-06T10:56:13.677Z,55.86
2022-10-06T10:58:43.707Z,56.53
2022-10-06T11:01:19.897Z,55.75
2022-10-06T11:03:56.522Z,56.49
2022-10-06T11:06:54.483Z,57.11
2022-10-06T11:09:55.327Z,56.37
2022-10-06T11:12:51.115Z,56.82
2022-10-06T11:15:47.789Z,56.51
2022-10-06T11:19:11.159Z,55.92
2022-10-06T11:22:20.769Z,54.71
2022-10-06T11:25:00.080Z,52.97
2022-10-06T11:27:30.805Z,53.34
2022-10-06T11:30:15.327Z,52.42
2022-10-06T11:33:03.045Z,52.50
2022-10-06T11:35:37.625Z,50.77
2022-10-06T11:38:18.880Z,50.68
2022-10-06T11:41:10.129Z,52.67
2022-10-06T11:44:00.466Z,55.24
2022-10-06T11:46:45.475Z,55.43
2022-10-06T11:49:33.789Z,53.50
2022-10-06T11:52:08.477Z,53.85
2022-10-06T11:54:47.434Z,53.70
2022-10-06T11:57:29.372Z,53.05
2022-10-06T12:00:03.600Z,52.63
2022-10-06T12:02:44.829Z,51.58
2022-10-06T12:08:02.113Z,51.14
2022-10-06T12:10:29.305Z,51.77
2022-10-06T12:13:51.275Z,52.40
2022-10-06T12:19:19.238Z,51.64
2022-10-06T12:22:22.718Z,49.98
2022-10-06T12:25:14.762Z,50.10
2022-10-06T12:28:23.296Z,48.66
2022-10-06T12:31:18.423Z,48.00
2022-10-06T12:33:46.238Z,48.34
2022-10-06T12:36:24.032Z,48.30
2022-10-06T12:39:22.966Z,46.29
2022-10-06T12:42:03.178Z,46.25
2022-10-06T12:44:51.669Z,47.25
2022-10-06T12:47:32.588Z,46.93
2022-10-06T12:50:25.360Z,46.69
2022-10-06T12:53:05.925Z,45.46
2022-10-06T12:56:32.096Z,45.84
2022-10-06T12:59:19.860Z,46.32
2022-10-06T13:01:51.243Z,45.29
2022-10-06T13:04:36.437Z,44.55
2022-10-06T13:07:59.644Z,44.32
2022-10-06T13:11:23.157Z,46.37
2022-10-06T13:13:54.030Z,46.74
2022-10-06T13:17:17.308Z,48.75
2022-10-06T13:20:40.666Z,47.50
2022-10-06T13:24:04.002Z,46.70
2022-10-06T13:26:32.724Z,45.91
2022-10-06T13:29:00.845Z,42.47
2022-10-06T13:32:24.272Z,40.10
2022-10-06T13:35:47.835Z,41.56
2022-10-06T13:39:11.486Z,42.68
2022-10-06T13:41:46.564Z,43.12
2022-10-06T13:44:18.725Z,43.87
2022-10-06T13:47:42.560Z,42.86
2022-10-06T13:50:19.783Z,43.93
2022-10-06T13:52:48.803Z,44.81
2022-10-06T13:55:25.728Z,43.79
2022-10-06T13:58:00.968Z,42.88
2022-10-06T14:00:46.147Z,40.03
2022-10-06T14:03:25.468Z,37.42
2022-10-06T14:06:05.884Z,34.39
2022-10-06T14:08:34.073Z,32.44
2022-10-06T14:11:06.034Z,30.00
2022-10-06T14:13:47.315Z,31.28
2022-10-06T14:16:25.090Z,33.29
2022-10-06T14:18:59.969Z,34.64
2022-10-06T14:21:34.189Z,34.92
2022-10-06T14:24:28.274Z,35.50
2022-10-06T14:27:02.767Z,38.37
2022-10-06T14:29:31.549Z,39.42
2022-10-06T14:32:18.007Z,42.27
2022-10-06T14:34:46.901Z,43.39
2022-10-06T14:37:16.741Z,42.92
2022-10-06T14:39:46.005Z,39.36
2022-10-06T14:42:15.502Z,37.54
2022-10-06T14:44:43.188Z,35.30
2022-10-06T14:47:10.435Z,33.82
2022-10-06T14:49:37.965Z,34.38
2022-10-06T14:52:08.119Z,32.85
2022-10-06T14:54:35.458Z,32.74
2022-10-06T14:57:02.457Z,32.00
2022-10-06T14:59:29.476Z,32.00
2022-10-06T15:01:56.689Z,31.31
2022-10-06T15:04:27.840Z,31.15
2022-10-06T15:07:13.437Z,30.57
2022-10-06T15:09:43.849Z,32.29
2022-10-06T15:12:11.220Z,31.35
2022-10-06T15:14:39.743Z,32.55
2022-10-06T15:17:07.030Z,32.37
2022-10-06T15:19:34.247Z,31.89
2022-10-06T15:22:05.852Z,31.29
2022-10-06T15:24:33.223Z,31.53
2022-10-06T15:27:22.513Z,32.59
2022-10-06T15:29:52.289Z,34.45
2022-10-06T15:32:19.296Z,36.09
2022-10-06T15:34:46.310Z,38.16
2022-10-06T15:37:13.345Z,38.79
2022-10-06T15:39:40.329Z,40.87
2022-10-06T15:42:08.653Z,42.49
2022-10-06T15:44:36.066Z,42.96
2022-10-06T15:47:05.929Z,44.14
2022-10-06T15:49:37.970Z,45.17
2022-10-06T15:52:05.733Z,45.66
2022-10-06T15:54:40.163Z,45.95
2022-10-06T15:57:12.164Z,45.87
2022-10-06T15:59:44.099Z,44.79
2022-10-06T16:02:15.604Z,45.73
2022-10-06T16:04:43.561Z,45.44
2022-10-06T16:07:19.389Z,46.30
2022-10-06T16:09:49.827Z,48.18
2022-10-06T16:12:21.267Z,48.78
2022-10-06T16:14:48.937Z,50.59
2022-10-06T16:17:16.026Z,51.83
2022-10-06T16:19:43.933Z,53.67
2022-10-06T16:22:17.433Z,55.39
2022-10-06T16:24:44.693Z,57.49
2022-10-06T16:27:13.540Z,58.60
2022-10-06T16:29:40.966Z,60.12
2022-10-06T16:32:08.159Z,62.02
2022-10-06T16:34:35.225Z,63.36
2022-10-06T16:37:02.213Z,64.89
2022-10-06T16:39:29.303Z,65.59
2022-10-06T16:41:56.324Z,67.11
2022-10-06T16:44:23.349Z,67.46
2022-10-06T16:46:50.431Z,68.80
2022-10-06T16:49:17.533Z,69.37
2022-10-06T16:51:49.644Z,69.34
2022-10-06T16:54:17.839Z,70.24
2022-10-06T16:56:53.808Z,70.50
2022-10-06T16:59:28.758Z,70.77
2022-10-06T17:01:55.893Z,71.71
2022-10-06T17:04:25.348Z,72.24
2022-10-06T17:06:55.333Z,74.60
2022-10-06T17:09:27.899Z,73.71
2022-10-06T17:12:03.713Z,75.26
2022-10-06T17:14:33.125Z,75.88
2022-10-06T17:17:00.577Z,76.43
2022-10-06T17:19:29.834Z,77.79
2022-10-06T17:22:03.666Z,78.84
2022-10-06T17:24:31.299Z,80.29
2022-10-06T17:26:59.049Z,81.27
2022-10-06T17:29:27.150Z,80.97
2022-10-06T17:31:59.981Z,82.21
2022-10-06T17:34:32.344Z,82.50
2022-10-06T17:37:02.366Z,83.53
2022-10-06T17:39:30.515Z,83.00
2022-10-06T17:41:57.661Z,85.22
2022-10-06T17:44:27.241Z,86.08
2022-10-06T17:47:00.266Z,88.03
2022-10-06T17:49:29.814Z,89.00
2022-10-06T17:51:57.229Z,90.21
2022-10-06T17:54:26.978Z,92.11
2022-10-06T17:56:57.098Z,94.23
2022-10-06T17:59:30.827Z,94.25
2022-10-06T18:02:02.444Z,96.35
2022-10-06T18:04:30.431Z,98.77
2022-10-06T18:06:57.564Z,100.00
2022-10-06T18:09:24.948Z,98.60
2022-10-06T18:11:56.404Z,99.91
2022-10-06T18:14:32.284Z,98.99
2022-10-06T18:17:02.301Z,96.74
2022-10-06T18:19:33.136Z,96.16
2022-10-06T18:22:11.606Z,94.52
2022-10-06T18:24:40.028Z,95.96
2022-10-06T18:27:08.519Z,95.51
2022-10-06T18:29:38.467Z,92.61
2022-10-06T18:37:42.238Z,92.21
2022-10-06T18:40:11.058Z,91.95
2022-10-06T18:42:39.142Z,95.64
2022-10-06T18:45:26.810Z,100.00
2022-10-06T18:48:12.685Z,100.00
2022-10-06T18:50:40.197Z,100.00
2022-10-06T18:53:07.335Z,100.00
2022-10-06T18:55:34.869Z,100.00
2022-10-06T18:58:02.562Z,100.00
2022-10-06T19:00:31.087Z,100.00
2022-10-06T19:02:58.407Z,100.00
2022-10-06T19:05:27.654Z,100.00
2022-10-06T19:07:55.707Z,100.00
2022-10-06T19:10:23.129Z,100.00
2022-10-06T19:12:50.680Z,100.00
2022-10-06T19:15:20.617Z,100.00
2022-10-06T19:17:49.448Z,100.00
2022-10-06T19:20:18.315Z,100.00
2022-10-06T19:22:47.408Z,100.00
2022-10-06T19:25:18.579Z,100.00
2022-10-06T19:27:45.883Z,100.00
2022-10-06T19:30:13.506Z,100.00
2022-10-06T19:32:40.690Z,100.00
2022-10-06T19:35:10.268Z,100.00
2022-10-06T19:37:38.614Z,100.00
2022-10-06T19:40:08.532Z,100.00
2022-10-06T19:42:47.571Z,100.00
2022-10-06T19:45:15.983Z,100.00
2022-10-06T19:47:45.032Z,100.00
2022-10-06T19:50:13.051Z,100.00
2022-10-06T19:52:43.108Z,100.00
2022-10-06T19:55:10.173Z,100.00
2022-10-06T19:57:37.219Z,100.00
2022-10-06T20:00:06.251Z,100.00
2022-10-06T20:02:42.817Z,100.00
2022-10-06T20:05:14.105Z,100.00
2022-10-06T20:07:43.796Z,100.00
2022-10-06T20:10:12.559Z,100.00
2022-10-06T20:12:41.318Z,100.00
2022-10-06T20:15:09.844Z,100.00
2022-10-06T20:17:37.060Z,100.00
2022-10-06T20:20:04.419Z,100.00
2022-10-06T20:22:31.786Z,100.00
2022-10-06T20:24:58.943Z,100.00
2022-10-06T20:27:25.920Z,100.00
2022-10-06T20:29:53.730Z,100.00
2022-10-06T20:32:21.930Z,100.00
2022-10-06T20:34:48.916Z,100.00
2022-10-06T20:37:15.887Z,100.00
2022-10-06T20:40:01.233Z,100.00
2022-10-06T20:42:28.212Z,100.00
2022-10-06T20:44:55.173Z,100.00
2022-10-06T20:47:23.288Z,100.00
2022-10-06T20:49:55.014Z,100.00
2022-10-06T20:52:24.208Z,100.00
2022-10-06T20:54:51.935Z,100.00
2022-10-06T20:57:18.989Z,100.00
2022-10-06T20:59:46.410Z,100.00
2022-10-06T21:02:13.518Z,100.00
2022-10-06T21:04:43.465Z,100.00
2022-10-06T21:07:11.168Z,100.00
2022-10-06T21:09:47.506Z,100.00
2022-10-06T21:12:17.073Z,100.00
2022-10-06T21:14:44.215Z,100.00
2022-10-06T21:17:11.314Z,100.00
2022-10-06T21:19:38.404Z,100.00
2022-10-06T21:22:10.616Z,100.00
2022-10-06T21:24:37.861Z,100.00
2022-10-06T21:27:30.217Z,100.00
2022-10-06T21:29:57.376Z,100.00
2022-10-06T21:32:24.771Z,100.00
2022-10-06T21:34:56.348Z,100.00
2022-10-06T21:37:23.337Z,100.00
2022-10-06T21:39:50.640Z,100.00
2022-10-06T21:42:18.353Z,100.00
2022-10-06T21:44:45.476Z,100.00
2022-10-06T21:47:12.809Z,100.00
2022-10-06T21:49:39.852Z,100.00
2022-10-06T21:52:07.004Z,100.00
2022-10-06T21:54:34.469Z,100.00
2022-10-06T21:57:01.805Z,100.00
2022-10-06T21:59:28.845Z,100.00
2022-10-06T22:01:56.771Z,100.00
2022-10-06T22:04:24.250Z,100.00
2022-10-06T22:06:51.681Z,100.00
2022-10-06T22:09:20.649Z,100.00
2022-10-06T22:11:47.835Z,100.00
2022-10-06T22:14:17.612Z,100.00
2022-10-06T22:16:45.384Z,100.00
2022-10-06T22:19:14.699Z,100.00
2022-10-06T22:21:45.584Z,100.00
2022-10-06T22:24:19.548Z,100.00
2022-10-06T22:26:48.520Z,100.00
2022-10-06T22:29:18.283Z,100.00
2022-10-06T22:31:47.089Z,100.00
2022-10-06T22:34:18.681Z,100.00
2022-10-06T22:36:46.070Z,100.00
2022-10-06T22:39:13.351Z,100.00
2022-10-06T22:41:40.788Z,100.00
2022-10-06T22:44:07.960Z,100.00
2022-10-06T22:46:36.974Z,100.00
2022-10-06T22:49:05.144Z,100.00
2022-10-06T22:51:32.446Z,100.00
2022-10-06T22:54:00.394Z,100.00
2022-10-06T22:56:31.250Z,100.00
2022-10-06T22:59:01.723Z,100.00
2022-10-06T23:01:30.427Z,100.00
2022-10-06T23:03:58.441Z,100.00
2022-10-06T23:06:26.010Z,100.00
2022-10-06T23:08:53.007Z,100.00
2022-10-06T23:11:22.568Z,100.00
2022-10-06T23:13:50.337Z,100.00
2022-10-06T23:16:19.198Z,100.00
2022-10-06T23:18:47.648Z,100.00
2022-10-06T23:21:21.255Z,100.00
2022-10-06T23:23:52.257Z,100.00
2022-10-06T23:26:21.890Z,100.00
2022-10-06T23:28:56.309Z,100.00
2022-10-06T23:31:24.136Z,100.00
2022-10-06T23:33:51.447Z,100.00
2022-10-06T23:36:18.858Z,100.00
2022-10-06T23:38:47.244Z,100.00
2022-10-06T23:41:15.382Z,100.00
2022-10-06T23:43:42.918Z,100.00
2022-10-06T23:46:10.299Z,100.00
2022-10-06T23:48:37.480Z,100.00
2022-10-06T23:51:12.304Z,100.00
2022-10-06T23:53:39.496Z,100.00
2022-10-06T23:56:07.804Z,100.00
2022-10-06T23:58:35.479Z,100.00
